CheckWX is a tool to help pilots better visualize weather data.  It is not intended as a substitute for an official pre-flight weather briefing.

09:39:52 UTC

KBDL METAR
Bradley International Airport
Windsor Locks, Connecticut, USA
Current

49 mins ago

KBDL 250851Z 24003KT 10SM OVC110 06/01 A2991 RMK AO2 SLP128 T00560006 55000
Observed
Feb-25 @ 08:51 UTC
Wind
  • 240° at 3 KTS
Visibility
10 SM
Flight Rules
VFR
Cloud Levels
  • Overcast at 11,000' AGL
Temperature
C / 43°F
Dewpoint
C / 34°F
Humidity
71%
Altimeter
29.91" Hg
Pressure
1012.92 hPa
Previous

2 hours ago

KBDL 250751Z 20005KT 10SM OVC110 06/01 A2989 RMK AO2 SLP121 T00610006
Observed
Feb-25 @ 07:51 UTC
Wind
  • 200° at 5 KTS
Visibility
10 SM
Flight Rules
VFR
Cloud Levels
  • Overcast at 11,000' AGL
Temperature
C / 43°F
Dewpoint
C / 34°F
Humidity
71%
Altimeter
29.89" Hg
Pressure
1012.22 hPa
Previous

3 hours ago

KBDL 250651Z 19004KT 10SM BKN110 OVC140 07/01 A2990 RMK AO2 SLP126 T00670006
Observed
Feb-25 @ 06:51 UTC
Wind
  • 190° at 4 KTS
Visibility
10 SM
Flight Rules
VFR
Cloud Levels
  • Broken at 11,000' AGL
  • Overcast at 14,000' AGL
Temperature
C / 45°F
Dewpoint
C / 34°F
Humidity
66%
Altimeter
29.9" Hg
Pressure
1012.52 hPa